sensor_id;sensor_type;location;lat;lon;timestamp;P1;durP1;ratioP1;P2;durP2;ratioP2
40288;SDS011;28991;52.028;5.526;2023-09-08T00:01:24;2.13;;;1.45;;
40288;SDS011;28991;52.028;5.526;2023-09-08T00:03:50;2.03;;;1.90;;
40288;SDS011;28991;52.028;5.526;2023-09-08T00:06:15;1.70;;;1.52;;
40288;SDS011;28991;52.028;5.526;2023-09-08T00:08:41;1.55;;;1.45;;
40288;SDS011;28991;52.028;5.526;2023-09-08T00:11:08;1.55;;;1.45;;
40288;SDS011;28991;52.028;5.526;2023-09-08T00:13:33;1.90;;;1.70;;
40288;SDS011;28991;52.028;5.526;2023-09-08T00:15:59;1.70;;;1.60;;
40288;SDS011;28991;52.028;5.526;2023-09-08T00:18:24;1.40;;;1.30;;
40288;SDS011;28991;52.028;5.526;2023-09-08T00:20:50;1.83;;;1.73;;
40288;SDS011;28991;52.028;5.526;2023-09-08T00:23:16;1.83;;;1.73;;
40288;SDS011;28991;52.028;5.526;2023-09-08T00:25:41;1.90;;;1.67;;
40288;SDS011;28991;52.028;5.526;2023-09-08T00:28:07;1.55;;;1.40;;
40288;SDS011;28991;52.028;5.526;2023-09-08T00:30:32;1.60;;;1.50;;
40288;SDS011;28991;52.028;5.526;2023-09-08T00:32:58;1.52;;;1.42;;
40288;SDS011;28991;52.028;5.526;2023-09-08T00:35:24;1.60;;;1.50;;
40288;SDS011;28991;52.028;5.526;2023-09-08T00:37:49;1.77;;;1.67;;
40288;SDS011;28991;52.028;5.526;2023-09-08T00:40:15;1.60;;;1.50;;
40288;SDS011;28991;52.028;5.526;2023-09-08T00:42:40;1.85;;;1.73;;
40288;SDS011;28991;52.028;5.526;2023-09-08T00:45:06;1.63;;;1.52;;
40288;SDS011;28991;52.028;5.526;2023-09-08T00:47:32;2.00;;;1.80;;
40288;SDS011;28991;52.028;5.526;2023-09-08T00:49:59;1.75;;;1.65;;
40288;SDS011;28991;52.028;5.526;2023-09-08T00:52:25;1.50;;;1.40;;
40288;SDS011;28991;52.028;5.526;2023-09-08T00:54:56;1.90;;;1.80;;
40288;SDS011;28991;52.028;5.526;2023-09-08T00:57:21;3.03;;;1.60;;
40288;SDS011;28991;52.028;5.526;2023-09-08T00:59:47;1.67;;;1.58;;
40288;SDS011;28991;52.028;5.526;2023-09-08T01:02:13;1.77;;;1.67;;
40288;SDS011;28991;52.028;5.526;2023-09-08T01:04:39;2.70;;;2.00;;
40288;SDS011;28991;52.028;5.526;2023-09-08T01:07:06;1.55;;;1.45;;
40288;SDS011;28991;52.028;5.526;2023-09-08T01:09:33;2.42;;;1.80;;
40288;SDS011;28991;52.028;5.526;2023-09-08T01:11:59;1.77;;;1.67;;
40288;SDS011;28991;52.028;5.526;2023-09-08T01:14:29;1.92;;;1.77;;
40288;SDS011;28991;52.028;5.526;2023-09-08T01:16:55;1.70;;;1.60;;
40288;SDS011;28991;52.028;5.526;2023-09-08T01:19:21;1.90;;;1.80;;
40288;SDS011;28991;52.028;5.526;2023-09-08T01:27:32;1.70;;;1.60;;
40288;SDS011;28991;52.028;5.526;2023-09-08T01:30:00;1.50;;;1.40;;
40288;SDS011;28991;52.028;5.526;2023-09-08T01:32:28;1.40;;;1.30;;
40288;SDS011;28991;52.028;5.526;2023-09-08T01:34:57;1.98;;;1.70;;
40288;SDS011;28991;52.028;5.526;2023-09-08T01:37:24;1.65;;;1.52;;
40288;SDS011;28991;52.028;5.526;2023-09-08T01:39:49;1.80;;;1.70;;
40288;SDS011;28991;52.028;5.526;2023-09-08T01:42:15;1.80;;;1.70;;
40288;SDS011;28991;52.028;5.526;2023-09-08T01:44:41;1.63;;;1.52;;
40288;SDS011;28991;52.028;5.526;2023-09-08T01:47:06;1.60;;;1.27;;
40288;SDS011;28991;52.028;5.526;2023-09-08T01:49:32;1.40;;;1.30;;
40288;SDS011;28991;52.028;5.526;2023-09-08T01:51:57;1.40;;;1.30;;
40288;SDS011;28991;52.028;5.526;2023-09-08T01:54:23;1.40;;;1.30;;
40288;SDS011;28991;52.028;5.526;2023-09-08T01:56:48;1.48;;;1.38;;
40288;SDS011;28991;52.028;5.526;2023-09-08T01:59:16;1.50;;;1.40;;
40288;SDS011;28991;52.028;5.526;2023-09-08T02:01:41;1.60;;;1.50;;
40288;SDS011;28991;52.028;5.526;2023-09-08T02:04:07;1.50;;;1.40;;
40288;SDS011;28991;52.028;5.526;2023-09-08T02:06:33;1.92;;;1.77;;
40288;SDS011;28991;52.028;5.526;2023-09-08T02:08:58;1.30;;;1.20;;
40288;SDS011;28991;52.028;5.526;2023-09-08T02:11:24;1.63;;;1.52;;
40288;SDS011;28991;52.028;5.526;2023-09-08T02:13:49;1.50;;;1.40;;
40288;SDS011;28991;52.028;5.526;2023-09-08T02:16:15;1.40;;;1.30;;
40288;SDS011;28991;52.028;5.526;2023-09-08T02:18:42;1.60;;;1.50;;
40288;SDS011;28991;52.028;5.526;2023-09-08T02:21:09;1.90;;;1.80;;
40288;SDS011;28991;52.028;5.526;2023-09-08T02:23:34;1.40;;;1.30;;
40288;SDS011;28991;52.028;5.526;2023-09-08T02:26:00;1.55;;;1.45;;
40288;SDS011;28991;52.028;5.526;2023-09-08T02:28:26;1.70;;;1.60;;
40288;SDS011;28991;52.028;5.526;2023-09-08T02:30:51;1.30;;;1.20;;
40288;SDS011;28991;52.028;5.526;2023-09-08T02:33:17;1.65;;;1.55;;
40288;SDS011;28991;52.028;5.526;2023-09-08T02:35:43;1.65;;;1.55;;
40288;SDS011;28991;52.028;5.526;2023-09-08T02:38:08;1.80;;;1.70;;
40288;SDS011;28991;52.028;5.526;2023-09-08T02:40:34;2.00;;;1.45;;
40288;SDS011;28991;52.028;5.526;2023-09-08T02:43:00;1.60;;;1.50;;
40288;SDS011;28991;52.028;5.526;2023-09-08T02:45:26;1.63;;;1.52;;
40288;SDS011;28991;52.028;5.526;2023-09-08T02:47:52;2.00;;;1.70;;
40288;SDS011;28991;52.028;5.526;2023-09-08T02:50:18;1.77;;;1.63;;
40288;SDS011;28991;52.028;5.526;2023-09-08T02:52:44;1.45;;;1.35;;
40288;SDS011;28991;52.028;5.526;2023-09-08T02:55:10;1.60;;;1.50;;
40288;SDS011;28991;52.028;5.526;2023-09-08T02:57:36;1.67;;;1.58;;
40288;SDS011;28991;52.028;5.526;2023-09-08T03:00:02;1.60;;;1.50;;
40288;SDS011;28991;52.028;5.526;2023-09-08T03:02:30;1.90;;;1.70;;
40288;SDS011;28991;52.028;5.526;2023-09-08T03:04:55;1.90;;;1.80;;
40288;SDS011;28991;52.028;5.526;2023-09-08T03:07:21;1.45;;;1.35;;
40288;SDS011;28991;52.028;5.526;2023-09-08T03:09:47;1.60;;;1.50;;
40288;SDS011;28991;52.028;5.526;2023-09-08T03:12:13;1.60;;;1.50;;
40288;SDS011;28991;52.028;5.526;2023-09-08T03:14:38;1.55;;;1.45;;
40288;SDS011;28991;52.028;5.526;2023-09-08T03:17:04;1.90;;;1.80;;
40288;SDS011;28991;52.028;5.526;2023-09-08T03:19:30;1.80;;;1.70;;
40288;SDS011;28991;52.028;5.526;2023-09-08T03:21:56;1.40;;;1.30;;
40288;SDS011;28991;52.028;5.526;2023-09-08T03:24:24;1.50;;;1.40;;
40288;SDS011;28991;52.028;5.526;2023-09-08T03:26:49;1.40;;;1.30;;
40288;SDS011;28991;52.028;5.526;2023-09-08T03:29:15;1.65;;;1.55;;
40288;SDS011;28991;52.028;5.526;2023-09-08T03:31:41;1.65;;;1.55;;
40288;SDS011;28991;52.028;5.526;2023-09-08T03:34:06;1.50;;;1.40;;
40288;SDS011;28991;52.028;5.526;2023-09-08T03:36:32;1.15;;;1.05;;
40288;SDS011;28991;52.028;5.526;2023-09-08T03:39:01;1.67;;;1.58;;
40288;SDS011;28991;52.028;5.526;2023-09-08T03:41:27;1.45;;;1.35;;
40288;SDS011;28991;52.028;5.526;2023-09-08T03:43:52;1.45;;;1.35;;
40288;SDS011;28991;52.028;5.526;2023-09-08T03:46:18;1.52;;;1.42;;
40288;SDS011;28991;52.028;5.526;2023-09-08T03:48:44;1.30;;;1.20;;
40288;SDS011;28991;52.028;5.526;2023-09-08T03:51:09;1.50;;;1.40;;
40288;SDS011;28991;52.028;5.526;2023-09-08T03:53:35;1.55;;;1.45;;
40288;SDS011;28991;52.028;5.526;2023-09-08T03:56:01;1.75;;;1.60;;
40288;SDS011;28991;52.028;5.526;2023-09-08T03:58:26;1.63;;;1.52;;
40288;SDS011;28991;52.028;5.526;2023-09-08T04:00:52;1.67;;;1.42;;
40288;SDS011;28991;52.028;5.526;2023-09-08T04:03:17;1.42;;;1.33;;
40288;SDS011;28991;52.028;5.526;2023-09-08T04:05:43;1.55;;;1.45;;
40288;SDS011;28991;52.028;5.526;2023-09-08T04:08:08;1.80;;;1.58;;
40288;SDS011;28991;52.028;5.526;2023-09-08T04:10:34;1.60;;;1.50;;
40288;SDS011;28991;52.028;5.526;2023-09-08T04:13:00;1.80;;;1.40;;
40288;SDS011;28991;52.028;5.526;2023-09-08T04:15:25;1.40;;;1.30;;
40288;SDS011;28991;52.028;5.526;2023-09-08T04:17:51;1.55;;;1.42;;
40288;SDS011;28991;52.028;5.526;2023-09-08T04:20:17;1.50;;;1.40;;
40288;SDS011;28991;52.028;5.526;2023-09-08T04:22:43;1.38;;;1.27;;
40288;SDS011;28991;52.028;5.526;2023-09-08T04:25:09;1.95;;;1.60;;
40288;SDS011;28991;52.028;5.526;2023-09-08T04:27:35;1.70;;;1.60;;
40288;SDS011;28991;52.028;5.526;2023-09-08T04:30:01;1.70;;;1.60;;
40288;SDS011;28991;52.028;5.526;2023-09-08T04:32:29;1.40;;;1.30;;
40288;SDS011;28991;52.028;5.526;2023-09-08T04:34:54;1.50;;;1.40;;
40288;SDS011;28991;52.028;5.526;2023-09-08T04:37:20;1.63;;;1.52;;
40288;SDS011;28991;52.028;5.526;2023-09-08T04:39:46;1.40;;;1.30;;
40288;SDS011;28991;52.028;5.526;2023-09-08T04:42:11;1.67;;;1.58;;
40288;SDS011;28991;52.028;5.526;2023-09-08T04:44:38;1.63;;;1.50;;
40288;SDS011;28991;52.028;5.526;2023-09-08T04:47:04;1.45;;;1.35;;
40288;SDS011;28991;52.028;5.526;2023-09-08T04:49:29;1.75;;;1.65;;
40288;SDS011;28991;52.028;5.526;2023-09-08T04:51:56;1.40;;;1.30;;
40288;SDS011;28991;52.028;5.526;2023-09-08T04:54:21;1.50;;;1.40;;
40288;SDS011;28991;52.028;5.526;2023-09-08T04:56:49;1.55;;;1.45;;
40288;SDS011;28991;52.028;5.526;2023-09-08T04:59:15;1.60;;;1.42;;
40288;SDS011;28991;52.028;5.526;2023-09-08T05:01:41;1.88;;;1.70;;
40288;SDS011;28991;52.028;5.526;2023-09-08T05:04:08;1.80;;;1.70;;
40288;SDS011;28991;52.028;5.526;2023-09-08T05:06:34;1.70;;;1.50;;
40288;SDS011;28991;52.028;5.526;2023-09-08T05:08:59;2.05;;;1.85;;
40288;SDS011;28991;52.028;5.526;2023-09-08T05:11:25;2.40;;;2.20;;
40288;SDS011;28991;52.028;5.526;2023-09-08T05:13:51;2.47;;;2.22;;
40288;SDS011;28991;52.028;5.526;2023-09-08T05:16:16;2.63;;;2.42;;
40288;SDS011;28991;52.028;5.526;2023-09-08T05:18:44;2.40;;;2.20;;
40288;SDS011;28991;52.028;5.526;2023-09-08T05:21:09;2.88;;;2.35;;
40288;SDS011;28991;52.028;5.526;2023-09-08T05:23:35;2.45;;;2.25;;
40288;SDS011;28991;52.028;5.526;2023-09-08T05:26:00;3.33;;;2.90;;
40288;SDS011;28991;52.028;5.526;2023-09-08T05:28:26;2.78;;;2.58;;
40288;SDS011;28991;52.028;5.526;2023-09-08T05:30:52;3.33;;;3.00;;
40288;SDS011;28991;52.028;5.526;2023-09-08T05:33:18;4.35;;;3.95;;
40288;SDS011;28991;52.028;5.526;2023-09-08T05:35:44;4.55;;;4.15;;
40288;SDS011;28991;52.028;5.526;2023-09-08T05:38:10;6.53;;;4.93;;
40288;SDS011;28991;52.028;5.526;2023-09-08T05:40:36;5.30;;;4.80;;
40288;SDS011;28991;52.028;5.526;2023-09-08T05:43:02;5.97;;;5.15;;
40288;SDS011;28991;52.028;5.526;2023-09-08T05:45:27;6.03;;;4.20;;
40288;SDS011;28991;52.028;5.526;2023-09-08T05:47:53;4.55;;;3.80;;
40288;SDS011;28991;52.028;5.526;2023-09-08T05:50:18;3.83;;;3.42;;
40288;SDS011;28991;52.028;5.526;2023-09-08T05:52:44;4.60;;;3.80;;
40288;SDS011;28991;52.028;5.526;2023-09-08T05:55:10;8.02;;;4.65;;
40288;SDS011;28991;52.028;5.526;2023-09-08T05:57:35;7.07;;;4.55;;
40288;SDS011;28991;52.028;5.526;2023-09-08T06:00:05;10.98;;;3.80;;
40288;SDS011;28991;52.028;5.526;2023-09-08T06:02:31;4.75;;;4.32;;
40288;SDS011;28991;52.028;5.526;2023-09-08T06:04:56;5.25;;;4.63;;
40288;SDS011;28991;52.028;5.526;2023-09-08T06:07:22;6.43;;;4.72;;
40288;SDS011;28991;52.028;5.526;2023-09-08T06:09:47;5.50;;;4.55;;
40288;SDS011;28991;52.028;5.526;2023-09-08T06:12:13;6.88;;;4.72;;
40288;SDS011;28991;52.028;5.526;2023-09-08T06:14:38;6.60;;;4.68;;
40288;SDS011;28991;52.028;5.526;2023-09-08T06:17:04;6.22;;;5.43;;
40288;SDS011;28991;52.028;5.526;2023-09-08T06:19:30;8.80;;;5.10;;
40288;SDS011;28991;52.028;5.526;2023-09-08T06:21:55;8.40;;;5.28;;
40288;SDS011;28991;52.028;5.526;2023-09-08T06:24:21;5.57;;;4.97;;
40288;SDS011;28991;52.028;5.526;2023-09-08T06:26:46;6.93;;;4.82;;
40288;SDS011;28991;52.028;5.526;2023-09-08T06:29:12;8.45;;;5.30;;
40288;SDS011;28991;52.028;5.526;2023-09-08T06:31:38;5.55;;;5.00;;
40288;SDS011;28991;52.028;5.526;2023-09-08T06:34:03;6.60;;;5.22;;
40288;SDS011;28991;52.028;5.526;2023-09-08T06:36:29;7.35;;;4.82;;
40288;SDS011;28991;52.028;5.526;2023-09-08T06:38:54;5.55;;;4.03;;
40288;SDS011;28991;52.028;5.526;2023-09-08T06:41:20;5.97;;;4.30;;
40288;SDS011;28991;52.028;5.526;2023-09-08T06:43:47;8.75;;;5.15;;
40288;SDS011;28991;52.028;5.526;2023-09-08T06:46:13;5.78;;;4.82;;
40288;SDS011;28991;52.028;5.526;2023-09-08T06:48:39;9.77;;;4.97;;
40288;SDS011;28991;52.028;5.526;2023-09-08T06:51:04;7.05;;;4.50;;
40288;SDS011;28991;52.028;5.526;2023-09-08T06:53:30;5.22;;;4.50;;
40288;SDS011;28991;52.028;5.526;2023-09-08T06:55:56;7.00;;;4.65;;
40288;SDS011;28991;52.028;5.526;2023-09-08T06:58:21;6.65;;;4.55;;
40288;SDS011;28991;52.028;5.526;2023-09-08T07:00:47;8.73;;;5.00;;
40288;SDS011;28991;52.028;5.526;2023-09-08T07:03:14;5.75;;;5.03;;
40288;SDS011;28991;52.028;5.526;2023-09-08T07:05:40;6.95;;;4.55;;
40288;SDS011;28991;52.028;5.526;2023-09-08T07:08:05;4.20;;;3.80;;
40288;SDS011;28991;52.028;5.526;2023-09-08T07:10:31;6.53;;;4.57;;
40288;SDS011;28991;52.028;5.526;2023-09-08T07:12:57;7.25;;;4.60;;
40288;SDS011;28991;52.028;5.526;2023-09-08T07:15:23;4.78;;;4.22;;
40288;SDS011;28991;52.028;5.526;2023-09-08T07:17:48;6.20;;;4.68;;
40288;SDS011;28991;52.028;5.526;2023-09-08T07:20:14;7.55;;;4.70;;
40288;SDS011;28991;52.028;5.526;2023-09-08T07:22:39;7.32;;;4.72;;
40288;SDS011;28991;52.028;5.526;2023-09-08T07:25:05;9.45;;;4.75;;
40288;SDS011;28991;52.028;5.526;2023-09-08T07:27:31;5.97;;;5.03;;
40288;SDS011;28991;52.028;5.526;2023-09-08T07:29:57;6.57;;;4.32;;
40288;SDS011;28991;52.028;5.526;2023-09-08T07:32:22;7.90;;;5.05;;
40288;SDS011;28991;52.028;5.526;2023-09-08T07:34:49;6.80;;;4.18;;
40288;SDS011;28991;52.028;5.526;2023-09-08T07:37:23;7.38;;;5.03;;
40288;SDS011;28991;52.028;5.526;2023-09-08T07:39:49;6.25;;;4.53;;
40288;SDS011;28991;52.028;5.526;2023-09-08T07:42:15;6.47;;;4.60;;
40288;SDS011;28991;52.028;5.526;2023-09-08T07:44:41;4.55;;;3.40;;
40288;SDS011;28991;52.028;5.526;2023-09-08T07:47:07;6.50;;;3.75;;
40288;SDS011;28991;52.028;5.526;2023-09-08T07:49:33;10.27;;;4.20;;
40288;SDS011;28991;52.028;5.526;2023-09-08T07:51:59;7.35;;;4.38;;
40288;SDS011;28991;52.028;5.526;2023-09-08T07:54:25;9.98;;;4.25;;
40288;SDS011;28991;52.028;5.526;2023-09-08T07:56:50;6.35;;;4.22;;
40288;SDS011;28991;52.028;5.526;2023-09-08T07:59:16;6.03;;;3.92;;
40288;SDS011;28991;52.028;5.526;2023-09-08T08:01:42;3.83;;;3.47;;
40288;SDS011;28991;52.028;5.526;2023-09-08T08:04:07;8.05;;;3.50;;
40288;SDS011;28991;52.028;5.526;2023-09-08T08:06:33;4.22;;;3.55;;
40288;SDS011;28991;52.028;5.526;2023-09-08T08:08:59;5.53;;;3.65;;
40288;SDS011;28991;52.028;5.526;2023-09-08T08:11:24;3.85;;;3.03;;
40288;SDS011;28991;52.028;5.526;2023-09-08T08:13:50;4.63;;;3.78;;
40288;SDS011;28991;52.028;5.526;2023-09-08T08:16:16;6.50;;;3.90;;
40288;SDS011;28991;52.028;5.526;2023-09-08T08:18:42;4.53;;;3.35;;
40288;SDS011;28991;52.028;5.526;2023-09-08T08:21:08;5.85;;;3.50;;
40288;SDS011;28991;52.028;5.526;2023-09-08T08:23:34;3.90;;;3.45;;
40288;SDS011;28991;52.028;5.526;2023-09-08T08:26:00;4.63;;;3.45;;
40288;SDS011;28991;52.028;5.526;2023-09-08T08:28:26;5.65;;;3.88;;
40288;SDS011;28991;52.028;5.526;2023-09-08T08:30:51;4.72;;;3.53;;
40288;SDS011;28991;52.028;5.526;2023-09-08T08:33:17;4.03;;;3.60;;
40288;SDS011;28991;52.028;5.526;2023-09-08T08:35:48;7.25;;;3.67;;
40288;SDS011;28991;52.028;5.526;2023-09-08T08:38:15;4.90;;;3.30;;
40288;SDS011;28991;52.028;5.526;2023-09-08T08:40:40;4.18;;;3.13;;
40288;SDS011;28991;52.028;5.526;2023-09-08T08:43:07;7.18;;;3.10;;
40288;SDS011;28991;52.028;5.526;2023-09-08T08:45:32;4.82;;;3.20;;
40288;SDS011;28991;52.028;5.526;2023-09-08T08:48:00;4.82;;;3.60;;
40288;SDS011;28991;52.028;5.526;2023-09-08T08:50:26;9.48;;;3.75;;
40288;SDS011;28991;52.028;5.526;2023-09-08T08:52:53;5.32;;;3.65;;
40288;SDS011;28991;52.028;5.526;2023-09-08T08:55:18;6.25;;;3.88;;
40288;SDS011;28991;52.028;5.526;2023-09-08T08:57:44;5.22;;;3.63;;
40288;SDS011;28991;52.028;5.526;2023-09-08T09:00:11;9.23;;;3.92;;
40288;SDS011;28991;52.028;5.526;2023-09-08T09:02:41;7.90;;;3.33;;
40288;SDS011;28991;52.028;5.526;2023-09-08T09:05:16;6.55;;;3.50;;
40288;SDS011;28991;52.028;5.526;2023-09-08T09:07:43;5.43;;;3.58;;
40288;SDS011;28991;52.028;5.526;2023-09-08T09:10:09;6.60;;;3.60;;
40288;SDS011;28991;52.028;5.526;2023-09-08T09:12:38;4.63;;;3.50;;
40288;SDS011;28991;52.028;5.526;2023-09-08T09:15:04;6.78;;;3.55;;
40288;SDS011;28991;52.028;5.526;2023-09-08T09:17:33;5.82;;;3.17;;
40288;SDS011;28991;52.028;5.526;2023-09-08T09:20:15;5.22;;;3.50;;
40288;SDS011;28991;52.028;5.526;2023-09-08T09:22:45;5.82;;;3.50;;
40288;SDS011;28991;52.028;5.526;2023-09-08T09:25:20;7.07;;;3.58;;
40288;SDS011;28991;52.028;5.526;2023-09-08T09:27:53;8.18;;;2.83;;
40288;SDS011;28991;52.028;5.526;2023-09-08T09:30:20;3.83;;;2.95;;
40288;SDS011;28991;52.028;5.526;2023-09-08T09:32:47;5.63;;;3.20;;
40288;SDS011;28991;52.028;5.526;2023-09-08T09:35:16;3.60;;;3.30;;
40288;SDS011;28991;52.028;5.526;2023-09-08T09:37:42;6.68;;;3.15;;
40288;SDS011;28991;52.028;5.526;2023-09-08T09:40:08;3.55;;;3.08;;
40288;SDS011;28991;52.028;5.526;2023-09-08T09:42:37;3.58;;;3.13;;
40288;SDS011;28991;52.028;5.526;2023-09-08T09:45:05;3.53;;;2.88;;
40288;SDS011;28991;52.028;5.526;2023-09-08T09:47:31;5.95;;;3.83;;
40288;SDS011;28991;52.028;5.526;2023-09-08T09:49:57;6.75;;;3.75;;
40288;SDS011;28991;52.028;5.526;2023-09-08T09:52:23;4.18;;;3.72;;
40288;SDS011;28991;52.028;5.526;2023-09-08T09:54:51;4.13;;;3.33;;
40288;SDS011;28991;52.028;5.526;2023-09-08T09:57:20;7.50;;;3.17;;
40288;SDS011;28991;52.028;5.526;2023-09-08T09:59:47;4.88;;;2.95;;
40288;SDS011;28991;52.028;5.526;2023-09-08T10:02:15;5.75;;;3.58;;
40288;SDS011;28991;52.028;5.526;2023-09-08T10:04:45;4.07;;;2.83;;
40288;SDS011;28991;52.028;5.526;2023-09-08T10:07:14;11.73;;;3.35;;
40288;SDS011;28991;52.028;5.526;2023-09-08T10:09:41;6.75;;;3.42;;
40288;SDS011;28991;52.028;5.526;2023-09-08T10:12:06;3.30;;;2.97;;
40288;SDS011;28991;52.028;5.526;2023-09-08T10:14:35;4.72;;;3.10;;
40288;SDS011;28991;52.028;5.526;2023-09-08T10:17:02;3.63;;;2.80;;
40288;SDS011;28991;52.028;5.526;2023-09-08T10:19:30;3.47;;;3.17;;
40288;SDS011;28991;52.028;5.526;2023-09-08T10:22:00;3.88;;;3.03;;
40288;SDS011;28991;52.028;5.526;2023-09-08T10:24:28;3.85;;;2.97;;
40288;SDS011;28991;52.028;5.526;2023-09-08T10:27:09;4.50;;;3.22;;
40288;SDS011;28991;52.028;5.526;2023-09-08T10:29:36;3.40;;;2.80;;
40288;SDS011;28991;52.028;5.526;2023-09-08T10:32:02;3.67;;;3.38;;
40288;SDS011;28991;52.028;5.526;2023-09-08T10:34:30;3.67;;;3.38;;
40288;SDS011;28991;52.028;5.526;2023-09-08T10:36:58;6.32;;;3.47;;
40288;SDS011;28991;52.028;5.526;2023-09-08T10:39:27;6.43;;;3.17;;
40288;SDS011;28991;52.028;5.526;2023-09-08T10:47:14;4.60;;;3.45;;
40288;SDS011;28991;52.028;5.526;2023-09-08T10:49:43;6.38;;;3.83;;
40288;SDS011;28991;52.028;5.526;2023-09-08T10:52:11;3.53;;;2.95;;
40288;SDS011;28991;52.028;5.526;2023-09-08T10:54:41;4.32;;;3.33;;
40288;SDS011;28991;52.028;5.526;2023-09-08T10:57:12;4.47;;;3.80;;
40288;SDS011;28991;52.028;5.526;2023-09-08T11:02:05;4.13;;;3.50;;
40288;SDS011;28991;52.028;5.526;2023-09-08T11:04:30;3.70;;;3.15;;
40288;SDS011;28991;52.028;5.526;2023-09-08T11:06:58;4.20;;;3.63;;
40288;SDS011;28991;52.028;5.526;2023-09-08T11:09:25;3.72;;;3.25;;
40288;SDS011;28991;52.028;5.526;2023-09-08T11:11:51;4.13;;;3.72;;
40288;SDS011;28991;52.028;5.526;2023-09-08T11:14:16;3.42;;;3.13;;
40288;SDS011;28991;52.028;5.526;2023-09-08T11:16:42;5.90;;;3.58;;
40288;SDS011;28991;52.028;5.526;2023-09-08T11:19:08;5.00;;;3.40;;
40288;SDS011;28991;52.028;5.526;2023-09-08T11:21:35;4.82;;;3.80;;
40288;SDS011;28991;52.028;5.526;2023-09-08T11:24:05;4.47;;;3.65;;
40288;SDS011;28991;52.028;5.526;2023-09-08T11:26:34;3.80;;;3.50;;
40288;SDS011;28991;52.028;5.526;2023-09-08T11:29:00;4.88;;;4.00;;
40288;SDS011;28991;52.028;5.526;2023-09-08T11:31:26;4.10;;;3.78;;
40288;SDS011;28991;52.028;5.526;2023-09-08T11:33:54;4.22;;;3.38;;
40288;SDS011;28991;52.028;5.526;2023-09-08T11:36:20;6.88;;;4.10;;
40288;SDS011;28991;52.028;5.526;2023-09-08T11:38:46;3.97;;;3.60;;
40288;SDS011;28991;52.028;5.526;2023-09-08T11:41:12;4.70;;;3.63;;
40288;SDS011;28991;52.028;5.526;2023-09-08T11:43:37;4.88;;;3.28;;
40288;SDS011;28991;52.028;5.526;2023-09-08T11:46:03;3.55;;;3.25;;
40288;SDS011;28991;52.028;5.526;2023-09-08T11:48:30;3.83;;;3.53;;
40288;SDS011;28991;52.028;5.526;2023-09-08T11:50:56;4.00;;;3.65;;
40288;SDS011;28991;52.028;5.526;2023-09-08T11:53:22;6.05;;;4.40;;
40288;SDS011;28991;52.028;5.526;2023-09-08T11:55:48;3.70;;;3.40;;
40288;SDS011;28991;52.028;5.526;2023-09-08T11:58:15;4.15;;;3.03;;
40288;SDS011;28991;52.028;5.526;2023-09-08T12:00:41;5.72;;;3.80;;
40288;SDS011;28991;52.028;5.526;2023-09-08T12:03:11;4.32;;;3.60;;
40288;SDS011;28991;52.028;5.526;2023-09-08T12:05:38;4.77;;;3.77;;
40288;SDS011;28991;52.028;5.526;2023-09-08T12:08:06;5.07;;;3.47;;
40288;SDS011;28991;52.028;5.526;2023-09-08T12:10:41;4.47;;;2.70;;
40288;SDS011;28991;52.028;5.526;2023-09-08T12:13:07;4.70;;;3.55;;
40288;SDS011;28991;52.028;5.526;2023-09-08T12:15:38;4.28;;;3.47;;
40288;SDS011;28991;52.028;5.526;2023-09-08T12:18:08;4.60;;;3.20;;
40288;SDS011;28991;52.028;5.526;2023-09-08T12:20:36;3.50;;;3.20;;
40288;SDS011;28991;52.028;5.526;2023-09-08T12:23:17;3.58;;;3.28;;
40288;SDS011;28991;52.028;5.526;2023-09-08T12:25:44;4.00;;;3.60;;
40288;SDS011;28991;52.028;5.526;2023-09-08T12:28:10;3.40;;;3.10;;
40288;SDS011;28991;52.028;5.526;2023-09-08T12:30:36;3.47;;;3.17;;
40288;SDS011;28991;52.028;5.526;2023-09-08T12:33:02;3.58;;;3.28;;
40288;SDS011;28991;52.028;5.526;2023-09-08T12:35:28;3.20;;;2.90;;
40288;SDS011;28991;52.028;5.526;2023-09-08T12:40:25;3.55;;;3.08;;
40288;SDS011;28991;52.028;5.526;2023-09-08T12:42:51;3.38;;;3.08;;
40288;SDS011;28991;52.028;5.526;2023-09-08T12:45:17;3.90;;;2.90;;
40288;SDS011;28991;52.028;5.526;2023-09-08T12:47:43;3.25;;;2.95;;
40288;SDS011;28991;52.028;5.526;2023-09-08T12:50:09;2.78;;;2.58;;
40288;SDS011;28991;52.028;5.526;2023-09-08T12:52:35;3.28;;;3.00;;
40288;SDS011;28991;52.028;5.526;2023-09-08T12:55:01;3.25;;;2.80;;
40288;SDS011;28991;52.028;5.526;2023-09-08T12:57:26;3.13;;;2.80;;
40288;SDS011;28991;52.028;5.526;2023-09-08T12:59:52;3.40;;;3.10;;
40288;SDS011;28991;52.028;5.526;2023-09-08T13:02:17;3.17;;;2.85;;
40288;SDS011;28991;52.028;5.526;2023-09-08T13:04:44;4.47;;;3.50;;
40288;SDS011;28991;52.028;5.526;2023-09-08T13:07:13;3.13;;;2.83;;
40288;SDS011;28991;52.028;5.526;2023-09-08T13:09:40;4.40;;;3.85;;
40288;SDS011;28991;52.028;5.526;2023-09-08T13:12:06;3.13;;;2.78;;
40288;SDS011;28991;52.028;5.526;2023-09-08T13:14:33;4.90;;;3.45;;
40288;SDS011;28991;52.028;5.526;2023-09-08T13:17:00;4.97;;;3.78;;
40288;SDS011;28991;52.028;5.526;2023-09-08T13:19:26;3.80;;;3.50;;
40288;SDS011;28991;52.028;5.526;2023-09-08T13:21:51;3.75;;;3.45;;
40288;SDS011;28991;52.028;5.526;2023-09-08T13:24:17;3.78;;;2.97;;
40288;SDS011;28991;52.028;5.526;2023-09-08T13:26:42;3.53;;;3.22;;
40288;SDS011;28991;52.028;5.526;2023-09-08T13:29:08;2.83;;;2.55;;
40288;SDS011;28991;52.028;5.526;2023-09-08T13:31:33;3.53;;;3.08;;
40288;SDS011;28991;52.028;5.526;2023-09-08T13:33:59;3.60;;;3.30;;
40288;SDS011;28991;52.028;5.526;2023-09-08T13:36:24;6.32;;;4.05;;
40288;SDS011;28991;52.028;5.526;2023-09-08T13:38:50;3.13;;;2.92;;
40288;SDS011;28991;52.028;5.526;2023-09-08T13:41:16;3.50;;;3.20;;
40288;SDS011;28991;52.028;5.526;2023-09-08T13:43:41;3.50;;;3.20;;
40288;SDS011;28991;52.028;5.526;2023-09-08T13:46:07;3.58;;;3.28;;
40288;SDS011;28991;52.028;5.526;2023-09-08T13:48:32;3.50;;;3.20;;
40288;SDS011;28991;52.028;5.526;2023-09-08T13:51:01;5.50;;;3.85;;
40288;SDS011;28991;52.028;5.526;2023-09-08T13:53:28;4.70;;;4.30;;
40288;SDS011;28991;52.028;5.526;2023-09-08T13:55:55;4.13;;;3.72;;
40288;SDS011;28991;52.028;5.526;2023-09-08T13:58:21;3.50;;;3.20;;
40288;SDS011;28991;52.028;5.526;2023-09-08T14:00:47;3.40;;;3.10;;
40288;SDS011;28991;52.028;5.526;2023-09-08T14:03:14;3.47;;;3.17;;
40288;SDS011;28991;52.028;5.526;2023-09-08T14:05:40;4.15;;;3.42;;
40288;SDS011;28991;52.028;5.526;2023-09-08T14:08:05;3.60;;;3.30;;
40288;SDS011;28991;52.028;5.526;2023-09-08T14:10:31;3.53;;;3.22;;
40288;SDS011;28991;52.028;5.526;2023-09-08T14:12:57;7.38;;;3.55;;
40288;SDS011;28991;52.028;5.526;2023-09-08T14:15:22;4.35;;;3.95;;
40288;SDS011;28991;52.028;5.526;2023-09-08T14:17:48;3.78;;;3.47;;
40288;SDS011;28991;52.028;5.526;2023-09-08T14:20:14;5.30;;;3.35;;
40288;SDS011;28991;52.028;5.526;2023-09-08T14:22:40;4.93;;;3.25;;
40288;SDS011;28991;52.028;5.526;2023-09-08T14:25:05;4.15;;;3.72;;
40288;SDS011;28991;52.028;5.526;2023-09-08T14:27:31;4.13;;;3.50;;
40288;SDS011;28991;52.028;5.526;2023-09-08T14:29:58;4.22;;;3.60;;
40288;SDS011;28991;52.028;5.526;2023-09-08T14:32:24;3.92;;;3.63;;
40288;SDS011;28991;52.028;5.526;2023-09-08T14:34:49;3.65;;;3.25;;
40288;SDS011;28991;52.028;5.526;2023-09-08T14:37:15;3.22;;;2.92;;
40288;SDS011;28991;52.028;5.526;2023-09-08T14:39:41;3.80;;;3.50;;
40288;SDS011;28991;52.028;5.526;2023-09-08T14:42:06;3.90;;;3.50;;
40288;SDS011;28991;52.028;5.526;2023-09-08T14:44:32;4.00;;;3.70;;
40288;SDS011;28991;52.028;5.526;2023-09-08T14:46:58;3.63;;;3.33;;
40288;SDS011;28991;52.028;5.526;2023-09-08T14:49:23;4.18;;;3.78;;
40288;SDS011;28991;52.028;5.526;2023-09-08T14:51:49;3.78;;;3.42;;
40288;SDS011;28991;52.028;5.526;2023-09-08T14:54:15;3.63;;;3.30;;
40288;SDS011;28991;52.028;5.526;2023-09-08T14:56:40;3.70;;;3.40;;
40288;SDS011;28991;52.028;5.526;2023-09-08T14:59:07;4.00;;;3.28;;